sensor_id;sensor_type;location;lat;lon;timestamp;temperature;humidity
12164;DHT22;6145;50.192;10.064;2023-07-31T00:01:33;18.30;73.60
12164;DHT22;6145;50.192;10.064;2023-07-31T00:04:01;18.50;73.90
12164;DHT22;6145;50.192;10.064;2023-07-31T00:06:28;19.00;74.50
12164;DHT22;6145;50.192;10.064;2023-07-31T00:08:55;18.40;74.00
12164;DHT22;6145;50.192;10.064;2023-07-31T00:11:23;18.30;73.90
12164;DHT22;6145;50.192;10.064;2023-07-31T00:13:50;18.50;74.30
12164;DHT22;6145;50.192;10.064;2023-07-31T00:16:17;18.90;74.60
12164;DHT22;6145;50.192;10.064;2023-07-31T00:18:44;18.30;73.80
12164;DHT22;6145;50.192;10.064;2023-07-31T00:21:11;19.10;74.80
12164;DHT22;6145;50.192;10.064;2023-07-31T00:23:38;18.40;74.00
12164;DHT22;6145;50.192;10.064;2023-07-31T00:26:04;18.80;75.10
12164;DHT22;6145;50.192;10.064;2023-07-31T00:28:33;18.90;74.70
12164;DHT22;6145;50.192;10.064;2023-07-31T00:31:00;18.30;74.20
12164;DHT22;6145;50.192;10.064;2023-07-31T00:33:27;18.50;75.30
12164;DHT22;6145;50.192;10.064;2023-07-31T00:35:56;18.20;74.40
12164;DHT22;6145;50.192;10.064;2023-07-31T00:38:23;18.70;74.90
12164;DHT22;6145;50.192;10.064;2023-07-31T00:40:53;18.30;74.60
12164;DHT22;6145;50.192;10.064;2023-07-31T00:43:20;18.30;74.60
12164;DHT22;6145;50.192;10.064;2023-07-31T00:45:48;18.20;74.50
12164;DHT22;6145;50.192;10.064;2023-07-31T00:48:15;19.80;76.30
12164;DHT22;6145;50.192;10.064;2023-07-31T00:50:42;18.50;74.90
12164;DHT22;6145;50.192;10.064;2023-07-31T00:53:09;18.40;74.80
12164;DHT22;6145;50.192;10.064;2023-07-31T00:55:36;18.40;75.00
12164;DHT22;6145;50.192;10.064;2023-07-31T00:58:02;18.30;74.90
12164;DHT22;6145;50.192;10.064;2023-07-31T01:00:32;18.30;74.70
12164;DHT22;6145;50.192;10.064;2023-07-31T01:03:01;18.30;75.00
12164;DHT22;6145;50.192;10.064;2023-07-31T01:05:36;18.20;75.00
12164;DHT22;6145;50.192;10.064;2023-07-31T01:08:09;18.30;75.90
12164;DHT22;6145;50.192;10.064;2023-07-31T01:10:46;18.10;75.10
12164;DHT22;6145;50.192;10.064;2023-07-31T01:13:15;18.30;75.40
12164;DHT22;6145;50.192;10.064;2023-07-31T01:15:44;18.30;75.60
12164;DHT22;6145;50.192;10.064;2023-07-31T01:18:13;18.30;75.60
12164;DHT22;6145;50.192;10.064;2023-07-31T01:20:46;18.40;75.70
12164;DHT22;6145;50.192;10.064;2023-07-31T01:23:31;19.10;76.70
12164;DHT22;6145;50.192;10.064;2023-07-31T01:26:10;18.30;76.10
12164;DHT22;6145;50.192;10.064;2023-07-31T01:28:45;18.70;76.90
12164;DHT22;6145;50.192;10.064;2023-07-31T01:31:17;18.20;76.90
12164;DHT22;6145;50.192;10.064;2023-07-31T01:33:45;18.60;77.50
12164;DHT22;6145;50.192;10.064;2023-07-31T01:36:15;18.10;76.90
12164;DHT22;6145;50.192;10.064;2023-07-31T01:38:43;18.40;77.30
12164;DHT22;6145;50.192;10.064;2023-07-31T01:41:12;19.10;78.00
12164;DHT22;6145;50.192;10.064;2023-07-31T01:43:39;18.50;77.30
12164;DHT22;6145;50.192;10.064;2023-07-31T01:46:06;18.20;77.00
12164;DHT22;6145;50.192;10.064;2023-07-31T01:48:33;18.60;77.40
12164;DHT22;6145;50.192;10.064;2023-07-31T01:51:02;18.10;76.80
12164;DHT22;6145;50.192;10.064;2023-07-31T01:53:31;18.20;76.90
12164;DHT22;6145;50.192;10.064;2023-07-31T01:55:59;18.20;77.00
12164;DHT22;6145;50.192;10.064;2023-07-31T01:58:27;18.50;77.20
12164;DHT22;6145;50.192;10.064;2023-07-31T02:00:54;18.20;77.00
12164;DHT22;6145;50.192;10.064;2023-07-31T02:03:21;18.10;76.80
12164;DHT22;6145;50.192;10.064;2023-07-31T02:05:49;18.20;77.00
12164;DHT22;6145;50.192;10.064;2023-07-31T02:08:16;18.30;77.10
12164;DHT22;6145;50.192;10.064;2023-07-31T02:10:43;19.40;78.30
12164;DHT22;6145;50.192;10.064;2023-07-31T02:13:10;18.20;77.10
12164;DHT22;6145;50.192;10.064;2023-07-31T02:15:38;19.30;78.30
12164;DHT22;6145;50.192;10.064;2023-07-31T02:18:05;17.90;76.80
12164;DHT22;6145;50.192;10.064;2023-07-31T02:20:34;18.10;77.10
12164;DHT22;6145;50.192;10.064;2023-07-31T02:23:15;18.70;77.60
12164;DHT22;6145;50.192;10.064;2023-07-31T02:25:42;18.50;77.30
12164;DHT22;6145;50.192;10.064;2023-07-31T02:28:10;18.10;77.10
12164;DHT22;6145;50.192;10.064;2023-07-31T02:30:39;18.10;76.90
12164;DHT22;6145;50.192;10.064;2023-07-31T02:33:05;18.10;77.10
12164;DHT22;6145;50.192;10.064;2023-07-31T02:35:32;18.10;77.10
12164;DHT22;6145;50.192;10.064;2023-07-31T02:38:04;18.10;77.10
12164;DHT22;6145;50.192;10.064;2023-07-31T02:40:31;18.90;77.90
12164;DHT22;6145;50.192;10.064;2023-07-31T02:42:58;18.40;77.40
12164;DHT22;6145;50.192;10.064;2023-07-31T02:45:28;18.10;77.00
12164;DHT22;6145;50.192;10.064;2023-07-31T02:47:56;18.70;77.70
12164;DHT22;6145;50.192;10.064;2023-07-31T02:50:23;18.10;76.90
12164;DHT22;6145;50.192;10.064;2023-07-31T02:52:50;18.20;77.10
12164;DHT22;6145;50.192;10.064;2023-07-31T02:55:16;18.10;76.90
12164;DHT22;6145;50.192;10.064;2023-07-31T02:57:48;18.20;77.10
12164;DHT22;6145;50.192;10.064;2023-07-31T03:00:16;18.20;77.30
12164;DHT22;6145;50.192;10.064;2023-07-31T03:02:44;18.20;77.60
12164;DHT22;6145;50.192;10.064;2023-07-31T03:05:13;18.20;77.60
12164;DHT22;6145;50.192;10.064;2023-07-31T03:07:42;18.20;77.80
12164;DHT22;6145;50.192;10.064;2023-07-31T03:10:24;17.50;77.00
12164;DHT22;6145;50.192;10.064;2023-07-31T03:12:52;18.30;77.90
12164;DHT22;6145;50.192;10.064;2023-07-31T03:15:19;18.30;78.30
12164;DHT22;6145;50.192;10.064;2023-07-31T03:17:46;18.30;78.10
12164;DHT22;6145;50.192;10.064;2023-07-31T03:20:14;18.20;77.90
12164;DHT22;6145;50.192;10.064;2023-07-31T03:22:43;18.20;77.80
12164;DHT22;6145;50.192;10.064;2023-07-31T03:25:10;18.20;77.80
12164;DHT22;6145;50.192;10.064;2023-07-31T03:27:39;18.20;77.90
12164;DHT22;6145;50.192;10.064;2023-07-31T03:30:07;18.20;77.90
12164;DHT22;6145;50.192;10.064;2023-07-31T03:32:36;18.20;77.90
12164;DHT22;6145;50.192;10.064;2023-07-31T03:35:04;18.20;77.70
12164;DHT22;6145;50.192;10.064;2023-07-31T03:37:33;18.20;77.80
12164;DHT22;6145;50.192;10.064;2023-07-31T03:39:59;18.20;77.80
12164;DHT22;6145;50.192;10.064;2023-07-31T03:42:26;18.20;77.70
12164;DHT22;6145;50.192;10.064;2023-07-31T03:44:53;18.20;77.20
12164;DHT22;6145;50.192;10.064;2023-07-31T03:47:20;18.20;77.80
12164;DHT22;6145;50.192;10.064;2023-07-31T03:49:47;18.20;77.90
12164;DHT22;6145;50.192;10.064;2023-07-31T03:52:14;18.20;77.90
12164;DHT22;6145;50.192;10.064;2023-07-31T03:54:42;19.00;78.70
12164;DHT22;6145;50.192;10.064;2023-07-31T03:57:10;18.50;78.10
12164;DHT22;6145;50.192;10.064;2023-07-31T03:59:36;18.20;77.80
12164;DHT22;6145;50.192;10.064;2023-07-31T04:02:04;18.20;77.80
12164;DHT22;6145;50.192;10.064;2023-07-31T04:04:34;18.20;77.90
12164;DHT22;6145;50.192;10.064;2023-07-31T04:07:04;18.30;78.00
12164;DHT22;6145;50.192;10.064;2023-07-31T04:09:32;18.20;78.20
12164;DHT22;6145;50.192;10.064;2023-07-31T04:12:00;18.20;78.20
12164;DHT22;6145;50.192;10.064;2023-07-31T04:14:27;18.20;78.30
12164;DHT22;6145;50.192;10.064;2023-07-31T04:16:54;18.20;78.30
12164;DHT22;6145;50.192;10.064;2023-07-31T04:19:21;18.10;78.30
12164;DHT22;6145;50.192;10.064;2023-07-31T04:21:48;18.80;79.10
12164;DHT22;6145;50.192;10.064;2023-07-31T04:24:15;18.30;79.30
12164;DHT22;6145;50.192;10.064;2023-07-31T04:26:49;18.10;78.40
12164;DHT22;6145;50.192;10.064;2023-07-31T04:29:18;18.10;78.40
12164;DHT22;6145;50.192;10.064;2023-07-31T04:31:48;19.10;79.60
12164;DHT22;6145;50.192;10.064;2023-07-31T04:54:15;18.10;79.20
12164;DHT22;6145;50.192;10.064;2023-07-31T04:56:42;18.10;79.20
12164;DHT22;6145;50.192;10.064;2023-07-31T04:59:19;18.30;79.50
12164;DHT22;6145;50.192;10.064;2023-07-31T05:02:20;17.70;78.80
12164;DHT22;6145;50.192;10.064;2023-07-31T05:05:43;18.20;79.10
12164;DHT22;6145;50.192;10.064;2023-07-31T05:08:58;18.20;79.10
12164;DHT22;6145;50.192;10.064;2023-07-31T05:28:52;18.30;79.40
12164;DHT22;6145;50.192;10.064;2023-07-31T05:36:18;18.30;79.30
12164;DHT22;6145;50.192;10.064;2023-07-31T05:39:12;18.80;79.60
12164;DHT22;6145;50.192;10.064;2023-07-31T05:41:59;19.60;80.60
12164;DHT22;6145;50.192;10.064;2023-07-31T05:48:17;18.50;79.50
12164;DHT22;6145;50.192;10.064;2023-07-31T05:51:01;18.40;79.20
12164;DHT22;6145;50.192;10.064;2023-07-31T05:53:45;18.60;79.50
12164;DHT22;6145;50.192;10.064;2023-07-31T05:56:27;18.60;79.00
12164;DHT22;6145;50.192;10.064;2023-07-31T05:59:26;18.60;79.20
12164;DHT22;6145;50.192;10.064;2023-07-31T06:03:38;18.60;79.30
12164;DHT22;6145;50.192;10.064;2023-07-31T10:22:04;22.50;70.50
12164;DHT22;6145;50.192;10.064;2023-07-31T10:28:26;23.00;70.40
12164;DHT22;6145;50.192;10.064;2023-07-31T10:31:23;22.60;69.80
12164;DHT22;6145;50.192;10.064;2023-07-31T10:34:31;22.40;69.00
12164;DHT22;6145;50.192;10.064;2023-07-31T10:41:10;22.40;68.80
12164;DHT22;6145;50.192;10.064;2023-07-31T10:46:28;22.90;70.20
12164;DHT22;6145;50.192;10.064;2023-07-31T10:49:39;22.20;70.90
12164;DHT22;6145;50.192;10.064;2023-07-31T10:52:27;22.20;72.90
12164;DHT22;6145;50.192;10.064;2023-07-31T10:55:15;22.10;72.70
12164;DHT22;6145;50.192;10.064;2023-07-31T11:40:40;22.30;77.30
12164;DHT22;6145;50.192;10.064;2023-07-31T11:43:08;22.30;77.30
12164;DHT22;6145;50.192;10.064;2023-07-31T11:45:45;22.20;77.60
12164;DHT22;6145;50.192;10.064;2023-07-31T11:49:06;22.30;77.60
12164;DHT22;6145;50.192;10.064;2023-07-31T11:51:47;22.20;77.80
12164;DHT22;6145;50.192;10.064;2023-07-31T11:54:13;22.00;77.90
12164;DHT22;6145;50.192;10.064;2023-07-31T11:56:44;21.90;77.80
12164;DHT22;6145;50.192;10.064;2023-07-31T11:59:11;22.00;77.80
12164;DHT22;6145;50.192;10.064;2023-07-31T12:01:38;22.00;77.70
12164;DHT22;6145;50.192;10.064;2023-07-31T12:04:05;22.00;77.30
12164;DHT22;6145;50.192;10.064;2023-07-31T12:06:33;22.00;77.60
12164;DHT22;6145;50.192;10.064;2023-07-31T12:09:02;21.90;77.50
12164;DHT22;6145;50.192;10.064;2023-07-31T12:11:29;21.90;77.60
12164;DHT22;6145;50.192;10.064;2023-07-31T12:13:57;21.90;77.90
12164;DHT22;6145;50.192;10.064;2023-07-31T12:16:26;21.90;77.90
12164;DHT22;6145;50.192;10.064;2023-07-31T12:18:54;22.00;78.00
12164;DHT22;6145;50.192;10.064;2023-07-31T12:21:21;22.10;78.30
12164;DHT22;6145;50.192;10.064;2023-07-31T12:23:48;22.10;77.20
12164;DHT22;6145;50.192;10.064;2023-07-31T12:26:16;22.10;77.70
12164;DHT22;6145;50.192;10.064;2023-07-31T12:28:44;22.60;77.60
12164;DHT22;6145;50.192;10.064;2023-07-31T12:31:15;22.40;77.80
12164;DHT22;6145;50.192;10.064;2023-07-31T12:33:47;22.50;77.40
12164;DHT22;6145;50.192;10.064;2023-07-31T12:36:17;22.60;76.40
12164;DHT22;6145;50.192;10.064;2023-07-31T12:38:44;22.80;76.20
12164;DHT22;6145;50.192;10.064;2023-07-31T12:41:12;23.00;75.30
12164;DHT22;6145;50.192;10.064;2023-07-31T12:43:40;23.00;73.50
12164;DHT22;6145;50.192;10.064;2023-07-31T12:46:07;23.10;72.10
12164;DHT22;6145;50.192;10.064;2023-07-31T16:06:04;22.70;70.50
12164;DHT22;6145;50.192;10.064;2023-07-31T16:08:31;22.70;70.40
12164;DHT22;6145;50.192;10.064;2023-07-31T16:10:58;22.80;70.50
12164;DHT22;6145;50.192;10.064;2023-07-31T16:13:25;22.70;70.10
12164;DHT22;6145;50.192;10.064;2023-07-31T16:15:52;22.70;70.10
12164;DHT22;6145;50.192;10.064;2023-07-31T16:18:19;22.70;70.10
12164;DHT22;6145;50.192;10.064;2023-07-31T16:20:54;22.70;70.10
12164;DHT22;6145;50.192;10.064;2023-07-31T16:23:22;22.70;70.10
12164;DHT22;6145;50.192;10.064;2023-07-31T16:25:52;22.70;69.90
12164;DHT22;6145;50.192;10.064;2023-07-31T16:28:19;22.70;70.10
12164;DHT22;6145;50.192;10.064;2023-07-31T16:30:46;22.70;70.10
12164;DHT22;6145;50.192;10.064;2023-07-31T16:33:13;22.80;69.70
12164;DHT22;6145;50.192;10.064;2023-07-31T16:35:40;22.70;69.90
12164;DHT22;6145;50.192;10.064;2023-07-31T16:38:10;22.80;70.00
12164;DHT22;6145;50.192;10.064;2023-07-31T16:40:43;23.10;70.30
12164;DHT22;6145;50.192;10.064;2023-07-31T16:43:12;22.70;70.20
12164;DHT22;6145;50.192;10.064;2023-07-31T16:45:40;22.80;70.10
12164;DHT22;6145;50.192;10.064;2023-07-31T16:48:07;22.60;70.10
12164;DHT22;6145;50.192;10.064;2023-07-31T16:50:33;22.70;70.30
12164;DHT22;6145;50.192;10.064;2023-07-31T16:53:07;22.60;70.10
12164;DHT22;6145;50.192;10.064;2023-07-31T16:55:39;22.60;70.10
12164;DHT22;6145;50.192;10.064;2023-07-31T16:58:15;22.70;70.30
12164;DHT22;6145;50.192;10.064;2023-07-31T17:01:05;22.50;70.60
12164;DHT22;6145;50.192;10.064;2023-07-31T17:03:53;22.50;70.90
12164;DHT22;6145;50.192;10.064;2023-07-31T17:06:34;22.40;71.80
12164;DHT22;6145;50.192;10.064;2023-07-31T17:09:18;22.50;72.70
